RTW107 EIDW-CYYT
Flight info
| Callsign | RTW107 |
|---|---|
| Flight time | 4h 14m |
| Altitude | 32000 |
| Route | PELIG DCT SHA DCT ELSOX/M079F320 DCT DINIM DCT 52N020W 52N030W 51N040W 49N050W DCT JOOPY/N0448F320 DCT MIVAD AVALN5 |
| Aircraft | B739/M-SDE2E3FGHIRWXY/LB1 |
Departure
| Time | 2026-04-25 22:42 |
|---|---|
| Airport | Dublin Airport (EIDW) |
Arrival
| Time | 2026-04-26 02:56 |
|---|---|
| Airport | St. John's International Airport (CYYT) |
| Time | Latitude | Longitude | Altitude | Speed | Heading |
|---|---|---|---|---|---|
| 2026-04-25 22:25 | 53.43103 | -6.24961 | 221 ft | 0 kts | 184° |
| 2026-04-25 22:31 | 53.43109 | -6.24960 | 220 ft | 2 kts | 184° |
| 2026-04-25 22:32 | 53.43125 | -6.24958 | 220 ft | 2 kts | 185° |
| 2026-04-25 22:32 | 53.43141 | -6.24955 | 217 ft | 2 kts | 185° |
| 2026-04-25 22:32 | 53.43158 | -6.24953 | 217 ft | 2 kts | 186° |
| 2026-04-25 22:32 | 53.43174 | -6.24950 | 217 ft | 2 kts | 186° |
| 2026-04-25 22:33 | 53.43175 | -6.24949 | 217 ft | 0 kts | 186° |
| 2026-04-25 22:33 | 53.43171 | -6.24962 | 218 ft | 2 kts | 250° |
| 2026-04-25 22:34 | 53.43185 | -6.25010 | 219 ft | 9 kts | 297° |
| 2026-04-25 22:34 | 53.43188 | -6.25022 | 219 ft | 0 kts | 291° |
| 2026-04-25 22:34 | 53.43195 | -6.25058 | 219 ft | 0 kts | 286° |
| 2026-04-25 22:34 | 53.43205 | -6.25150 | 220 ft | 0 kts | 275° |
| 2026-04-25 22:35 | 53.43205 | -6.25151 | 220 ft | 0 kts | 275° |
| 2026-04-25 22:35 | 53.43207 | -6.25265 | 220 ft | 15 kts | 262° |
| 2026-04-25 22:35 | 53.43170 | -6.25381 | 220 ft | 5 kts | 192° |
| 2026-04-25 22:36 | 53.43107 | -6.25358 | 223 ft | 19 kts | 156° |
| 2026-04-25 22:36 | 53.42973 | -6.25280 | 221 ft | 13 kts | 195° |
| 2026-04-25 22:36 | 53.42904 | -6.25387 | 221 ft | 18 kts | 226° |
| 2026-04-25 22:36 | 53.42778 | -6.25602 | 222 ft | 34 kts | 226° |
| 2026-04-25 22:37 | 53.42585 | -6.25685 | 216 ft | 29 kts | 173° |
| 2026-04-25 22:37 | 53.42434 | -6.25868 | 218 ft | 30 kts | 224° |
| 2026-04-25 22:37 | 53.42288 | -6.26159 | 223 ft | 33 kts | 246° |
| 2026-04-25 22:37 | 53.42282 | -6.26560 | 230 ft | 38 kts | 275° |
| 2026-04-25 22:38 | 53.42310 | -6.27045 | 230 ft | 46 kts | 275° |
| 2026-04-25 22:38 | 53.42340 | -6.27615 | 235 ft | 51 kts | 276° |
| 2026-04-25 22:38 | 53.42373 | -6.28232 | 247 ft | 54 kts | 275° |
| 2026-04-25 22:38 | 53.42404 | -6.28791 | 248 ft | 32 kts | 275° |
| 2026-04-25 22:39 | 53.42347 | -6.29061 | 247 ft | 25 kts | 195° |
| 2026-04-25 22:39 | 53.42242 | -6.28953 | 247 ft | 14 kts | 94° |
| 2026-04-25 22:39 | 53.42242 | -6.28945 | 247 ft | 0 kts | 92° |
| 2026-04-25 22:40 | 53.42242 | -6.28931 | 247 ft | 14 kts | 93° |
| 2026-04-25 22:41 | 53.42211 | -6.28323 | 247 ft | 89 kts | 95° |
| 2026-04-25 22:41 | 53.42132 | -6.26908 | 231 ft | 152 kts | 95° |
| 2026-04-25 22:41 | 53.41993 | -6.24868 | 275 ft | 197 kts | 97° |
| 2026-04-25 22:41 | 53.41870 | -6.22406 | 626 ft | 228 kts | 94° |
| 2026-04-25 22:42 | 53.41450 | -6.19749 | 956 ft | 251 kts | 124° |
| 2026-04-25 22:42 | 53.40109 | -6.17936 | 1344 ft | 251 kts | 160° |
| 2026-04-25 22:42 | 53.38400 | -6.17842 | 1720 ft | 250 kts | 197° |
| 2026-04-25 22:42 | 53.36990 | -6.19513 | 2111 ft | 255 kts | 233° |
| 2026-04-25 22:43 | 53.36379 | -6.22298 | 2523 ft | 259 kts | 256° |
| 2026-04-25 22:43 | 53.35743 | -6.25108 | 2914 ft | 259 kts | 244° |
| 2026-04-25 22:43 | 53.35217 | -6.28007 | 3296 ft | 262 kts | 256° |
| 2026-04-25 22:43 | 53.34869 | -6.31003 | 3674 ft | 263 kts | 257° |
| 2026-04-25 22:44 | 53.34533 | -6.34017 | 4042 ft | 264 kts | 257° |
| 2026-04-25 22:44 | 53.34178 | -6.37038 | 4399 ft | 265 kts | 256° |
| 2026-04-25 22:44 | 53.33795 | -6.40097 | 4765 ft | 272 kts | 256° |
| 2026-04-25 22:44 | 53.33381 | -6.43252 | 5108 ft | 284 kts | 255° |
| 2026-04-25 22:45 | 53.32932 | -6.46548 | 5522 ft | 296 kts | 255° |
| 2026-04-25 22:45 | 53.32455 | -6.49967 | 5926 ft | 308 kts | 255° |
| 2026-04-25 22:45 | 53.31957 | -6.53474 | 6329 ft | 319 kts | 255° |
| 2026-04-25 22:45 | 53.31422 | -6.57186 | 6745 ft | 330 kts | 254° |
| 2026-04-25 22:46 | 53.30880 | -6.60918 | 7113 ft | 340 kts | 254° |
| 2026-04-25 22:46 | 53.30311 | -6.64811 | 7499 ft | 350 kts | 254° |
| 2026-04-25 22:46 | 53.29722 | -6.68812 | 7875 ft | 359 kts | 254° |
| 2026-04-25 22:46 | 53.29117 | -6.72912 | 8258 ft | 367 kts | 254° |
| 2026-04-25 22:47 | 53.28495 | -6.77106 | 8657 ft | 375 kts | 254° |
| 2026-04-25 22:47 | 53.27859 | -6.81386 | 9052 ft | 383 kts | 254° |
| 2026-04-25 22:47 | 53.27209 | -6.85745 | 9440 ft | 390 kts | 254° |
| 2026-04-25 22:47 | 53.26548 | -6.90165 | 9842 ft | 393 kts | 254° |
| 2026-04-25 22:48 | 53.25884 | -6.94596 | 10217 ft | 394 kts | 254° |
| 2026-04-25 22:48 | 53.25217 | -6.99034 | 10576 ft | 395 kts | 254° |
| 2026-04-25 22:48 | 53.24544 | -7.03494 | 10936 ft | 396 kts | 254° |
| 2026-04-25 22:48 | 53.23867 | -7.07966 | 11306 ft | 397 kts | 254° |
| 2026-04-25 22:49 | 53.23189 | -7.12438 | 11681 ft | 398 kts | 253° |
| 2026-04-25 22:49 | 53.22505 | -7.16933 | 12054 ft | 400 kts | 253° |
| 2026-04-25 22:49 | 53.21817 | -7.21447 | 12438 ft | 402 kts | 253° |
| 2026-04-25 22:49 | 53.21124 | -7.25976 | 12827 ft | 404 kts | 253° |
| 2026-04-25 22:50 | 53.20433 | -7.30479 | 13217 ft | 407 kts | 253° |
| 2026-04-25 22:50 | 53.19615 | -7.35063 | 13600 ft | 408 kts | 245° |
| 2026-04-25 22:50 | 53.18428 | -7.39339 | 13688 ft | 415 kts | 241° |
| 2026-04-25 22:50 | 53.17111 | -7.43606 | 13700 ft | 414 kts | 240° |
| 2026-04-25 22:51 | 53.15777 | -7.47832 | 13692 ft | 410 kts | 240° |
| 2026-04-25 22:51 | 53.14450 | -7.52048 | 13702 ft | 411 kts | 240° |
| 2026-04-25 22:51 | 53.13129 | -7.56291 | 13709 ft | 413 kts | 240° |
| 2026-04-25 22:51 | 53.11819 | -7.60549 | 13707 ft | 414 kts | 240° |
| 2026-04-25 22:52 | 53.10517 | -7.64812 | 13703 ft | 412 kts | 240° |
| 2026-04-25 22:52 | 53.09227 | -7.69054 | 13694 ft | 411 kts | 240° |
| 2026-04-25 22:52 | 53.07939 | -7.73296 | 13794 ft | 410 kts | 240° |
| 2026-04-25 22:52 | 53.07088 | -7.76094 | 14088 ft | 409 kts | 240° |
| 2026-04-25 22:53 | 53.05356 | -7.81783 | 14568 ft | 414 kts | 240° |
| 2026-04-25 22:53 | 53.04048 | -7.86071 | 14937 ft | 417 kts | 240° |
| 2026-04-25 22:53 | 53.02750 | -7.90315 | 15295 ft | 419 kts | 240° |
| 2026-04-25 22:53 | 53.01411 | -7.94689 | 15663 ft | 420 kts | 240° |
| 2026-04-25 22:54 | 53.00104 | -7.98952 | 16041 ft | 420 kts | 240° |
| 2026-04-25 22:54 | 52.98771 | -8.03290 | 16420 ft | 421 kts | 240° |
| 2026-04-25 22:54 | 52.97434 | -8.07634 | 16811 ft | 421 kts | 240° |
| 2026-04-25 22:54 | 52.96097 | -8.11966 | 17203 ft | 422 kts | 240° |
| 2026-04-25 22:55 | 52.94760 | -8.16293 | 17613 ft | 422 kts | 240° |
| 2026-04-25 22:55 | 52.93419 | -8.20625 | 18003 ft | 423 kts | 240° |
| 2026-04-25 22:55 | 52.92073 | -8.24965 | 18402 ft | 424 kts | 240° |
| 2026-04-25 22:55 | 52.90717 | -8.29331 | 18764 ft | 425 kts | 239° |
| 2026-04-25 22:56 | 52.89377 | -8.33634 | 19117 ft | 426 kts | 239° |
| 2026-04-25 22:56 | 52.87999 | -8.38056 | 19482 ft | 427 kts | 239° |
| 2026-04-25 22:56 | 52.86633 | -8.42430 | 19845 ft | 428 kts | 239° |
| 2026-04-25 22:56 | 52.85278 | -8.46758 | 20220 ft | 428 kts | 239° |
| 2026-04-25 22:57 | 52.83906 | -8.51134 | 20591 ft | 429 kts | 239° |
| 2026-04-25 22:57 | 52.82530 | -8.55516 | 20962 ft | 429 kts | 239° |
| 2026-04-25 22:57 | 52.81154 | -8.59893 | 21353 ft | 430 kts | 239° |
| 2026-04-25 22:57 | 52.79770 | -8.64286 | 21746 ft | 431 kts | 238° |
| 2026-04-25 22:58 | 52.78386 | -8.68669 | 22137 ft | 431 kts | 238° |
| 2026-04-25 22:58 | 52.76997 | -8.73062 | 22539 ft | 431 kts | 238° |
| 2026-04-25 22:58 | 52.75611 | -8.77441 | 22943 ft | 431 kts | 238° |
| 2026-04-25 22:58 | 52.74220 | -8.81830 | 23351 ft | 431 kts | 238° |
| 2026-04-25 22:59 | 52.72826 | -8.86211 | 23764 ft | 431 kts | 238° |
| 2026-04-25 22:59 | 52.71437 | -8.90597 | 24120 ft | 431 kts | 238° |
| 2026-04-25 22:59 | 52.70079 | -8.95007 | 24466 ft | 431 kts | 239° |
| 2026-04-25 22:59 | 52.68738 | -8.99424 | 24829 ft | 431 kts | 239° |
| 2026-04-25 23:00 | 52.67403 | -9.03840 | 25187 ft | 430 kts | 238° |
| 2026-04-25 23:00 | 52.66069 | -9.08243 | 25548 ft | 429 kts | 238° |
| 2026-04-25 23:00 | 52.64737 | -9.12627 | 25904 ft | 428 kts | 238° |
| 2026-04-25 23:00 | 52.63402 | -9.17005 | 26282 ft | 427 kts | 238° |
| 2026-04-25 23:01 | 52.62068 | -9.21367 | 26656 ft | 426 kts | 238° |
| 2026-04-25 23:01 | 52.60735 | -9.25714 | 27031 ft | 425 kts | 237° |
| 2026-04-25 23:01 | 52.59418 | -9.29997 | 27420 ft | 423 kts | 237° |
| 2026-04-25 23:01 | 52.58090 | -9.34306 | 27805 ft | 422 kts | 237° |
| 2026-04-25 23:02 | 52.56765 | -9.38596 | 28200 ft | 420 kts | 237° |
| 2026-04-25 23:02 | 52.55441 | -9.42880 | 28598 ft | 418 kts | 237° |
| 2026-04-25 23:02 | 52.54126 | -9.47123 | 29002 ft | 416 kts | 237° |
| 2026-04-25 23:02 | 52.52815 | -9.51347 | 29421 ft | 414 kts | 236° |
| 2026-04-25 23:03 | 52.51508 | -9.55552 | 29838 ft | 411 kts | 236° |
| 2026-04-25 23:03 | 52.50209 | -9.59723 | 30265 ft | 408 kts | 236° |
| 2026-04-25 23:03 | 52.48919 | -9.63857 | 30639 ft | 405 kts | 236° |
| 2026-04-25 23:03 | 52.47638 | -9.67958 | 30997 ft | 402 kts | 236° |
| 2026-04-25 23:04 | 52.46366 | -9.72023 | 31363 ft | 398 kts | 235° |
| 2026-04-25 23:04 | 52.45531 | -9.74689 | 31608 ft | 396 kts | 235° |
| 2026-04-25 23:04 | 52.43875 | -9.79966 | 32097 ft | 389 kts | 235° |
| 2026-04-25 23:04 | 52.42634 | -9.83908 | 32231 ft | 391 kts | 235° |
| 2026-04-25 23:05 | 52.40114 | -9.91872 | 32246 ft | 396 kts | 235° |
| 2026-04-25 23:05 | 52.37554 | -9.99918 | 32236 ft | 399 kts | 241° |
| 2026-04-25 23:06 | 52.34979 | -10.08037 | 32241 ft | 404 kts | 241° |
| 2026-04-25 23:06 | 52.32374 | -10.16237 | 32242 ft | 408 kts | 241° |
| 2026-04-25 23:07 | 52.29734 | -10.24508 | 32242 ft | 413 kts | 241° |
| 2026-04-25 23:07 | 52.27058 | -10.32856 | 32245 ft | 417 kts | 241° |
| 2026-04-25 23:08 | 52.24350 | -10.41271 | 32244 ft | 421 kts | 241° |
| 2026-04-25 23:08 | 52.21614 | -10.49747 | 32246 ft | 424 kts | 241° |
| 2026-04-25 23:09 | 52.18848 | -10.58283 | 32242 ft | 427 kts | 240° |
| 2026-04-25 23:09 | 52.16528 | -10.65421 | 32240 ft | 429 kts | 240° |
| 2026-04-25 23:10 | 52.13719 | -10.74035 | 32238 ft | 431 kts | 240° |
| 2026-04-25 23:10 | 52.10896 | -10.82662 | 32241 ft | 432 kts | 240° |
| 2026-04-25 23:11 | 52.08057 | -10.91307 | 32242 ft | 433 kts | 240° |
| 2026-04-25 23:11 | 52.05210 | -10.99949 | 32240 ft | 434 kts | 240° |
| 2026-04-25 23:12 | 52.02351 | -11.08594 | 32242 ft | 435 kts | 240° |
| 2026-04-25 23:12 | 51.99481 | -11.17243 | 32235 ft | 435 kts | 240° |
| 2026-04-25 23:13 | 51.96604 | -11.25883 | 32237 ft | 435 kts | 240° |
| 2026-04-25 23:13 | 51.93719 | -11.34516 | 32231 ft | 436 kts | 240° |
| 2026-04-25 23:14 | 51.90844 | -11.43090 | 32238 ft | 436 kts | 239° |
| 2026-04-25 23:14 | 51.87943 | -11.51710 | 32234 ft | 436 kts | 239° |
| 2026-04-25 23:15 | 51.85032 | -11.60333 | 32246 ft | 436 kts | 239° |
| 2026-04-25 23:15 | 51.82115 | -11.68941 | 32234 ft | 436 kts | 239° |
| 2026-04-25 23:16 | 51.79189 | -11.77547 | 32235 ft | 436 kts | 239° |
| 2026-04-25 23:16 | 51.76262 | -11.86129 | 32235 ft | 437 kts | 239° |
| 2026-04-25 23:17 | 51.73323 | -11.94713 | 32233 ft | 437 kts | 239° |
| 2026-04-25 23:17 | 51.70397 | -12.03232 | 32243 ft | 437 kts | 239° |
| 2026-04-25 23:18 | 51.67444 | -12.11799 | 32242 ft | 437 kts | 239° |
| 2026-04-25 23:18 | 51.64484 | -12.20358 | 32241 ft | 437 kts | 239° |
| 2026-04-25 23:19 | 51.61517 | -12.28908 | 32234 ft | 438 kts | 238° |
| 2026-04-25 23:19 | 51.58538 | -12.37462 | 32241 ft | 438 kts | 238° |
| 2026-04-25 23:20 | 51.55556 | -12.45998 | 32236 ft | 438 kts | 238° |
| 2026-04-25 23:20 | 51.52564 | -12.54531 | 32239 ft | 438 kts | 238° |
| 2026-04-25 23:21 | 51.49566 | -12.63056 | 32235 ft | 438 kts | 238° |
| 2026-04-25 23:21 | 51.46581 | -12.71512 | 32237 ft | 438 kts | 238° |
| 2026-04-25 23:22 | 51.43568 | -12.80019 | 32237 ft | 438 kts | 238° |
| 2026-04-25 23:23 | 51.39039 | -12.92754 | 32235 ft | 439 kts | 238° |
| 2026-04-25 23:23 | 51.36012 | -13.01232 | 32235 ft | 439 kts | 238° |
| 2026-04-25 23:24 | 51.32976 | -13.09705 | 32230 ft | 439 kts | 238° |
| 2026-04-25 23:24 | 51.29950 | -13.18123 | 32235 ft | 439 kts | 237° |
| 2026-04-25 23:25 | 51.26900 | -13.26579 | 32230 ft | 439 kts | 237° |
| 2026-04-25 23:25 | 51.23845 | -13.35022 | 32236 ft | 439 kts | 237° |
| 2026-04-25 23:26 | 51.20778 | -13.43470 | 32231 ft | 439 kts | 237° |
| 2026-04-25 23:26 | 51.17709 | -13.51893 | 32234 ft | 440 kts | 237° |
| 2026-04-25 23:27 | 51.14628 | -13.60324 | 32234 ft | 440 kts | 237° |
| 2026-04-25 23:27 | 51.11559 | -13.68696 | 32232 ft | 440 kts | 237° |
| 2026-04-25 23:28 | 51.08468 | -13.77100 | 32231 ft | 440 kts | 237° |
| 2026-04-25 23:28 | 51.05366 | -13.85512 | 32232 ft | 440 kts | 237° |
| 2026-04-25 23:29 | 51.02260 | -13.93906 | 32232 ft | 441 kts | 237° |
| 2026-04-25 23:29 | 50.99992 | -14.02940 | 32234 ft | 450 kts | 259° |
| 2026-04-25 23:30 | 50.99903 | -14.12962 | 32233 ft | 455 kts | 266° |
| 2026-04-25 23:30 | 51.00019 | -14.22959 | 32230 ft | 456 kts | 266° |
| 2026-04-25 23:31 | 51.00083 | -14.33027 | 32223 ft | 456 kts | 266° |
| 2026-04-25 23:31 | 51.00101 | -14.43110 | 32230 ft | 456 kts | 266° |
| 2026-04-25 23:32 | 51.00100 | -14.53196 | 32228 ft | 457 kts | 266° |
| 2026-04-25 23:32 | 51.00092 | -14.63286 | 32228 ft | 457 kts | 266° |
| 2026-04-25 23:33 | 51.00077 | -14.73393 | 32226 ft | 457 kts | 266° |
| 2026-04-25 23:33 | 51.00055 | -14.83427 | 32216 ft | 458 kts | 266° |
| 2026-04-25 23:34 | 51.00025 | -14.93542 | 32218 ft | 458 kts | 266° |
| 2026-04-25 23:34 | 51.00641 | -15.03606 | 32225 ft | 467 kts | 285° |
| 2026-04-25 23:35 | 51.02873 | -15.13348 | 32222 ft | 469 kts | 286° |
| 2026-04-25 23:35 | 51.05140 | -15.23073 | 32212 ft | 469 kts | 286° |
| 2026-04-25 23:36 | 51.07358 | -15.32839 | 32217 ft | 469 kts | 285° |
| 2026-04-25 23:36 | 51.09522 | -15.42555 | 32216 ft | 469 kts | 285° |
| 2026-04-25 23:37 | 51.11681 | -15.52339 | 32215 ft | 469 kts | 285° |
| 2026-04-25 23:37 | 51.13850 | -15.62211 | 32211 ft | 469 kts | 285° |
| 2026-04-25 23:38 | 51.15983 | -15.71962 | 32212 ft | 469 kts | 285° |
| 2026-04-25 23:38 | 51.18120 | -15.81773 | 32211 ft | 469 kts | 285° |
| 2026-04-25 23:39 | 51.20251 | -15.91601 | 32209 ft | 468 kts | 285° |
| 2026-04-25 23:39 | 51.22371 | -16.01422 | 32206 ft | 468 kts | 285° |
| 2026-04-25 23:40 | 51.24483 | -16.11259 | 32204 ft | 468 kts | 285° |
| 2026-04-25 23:40 | 51.26584 | -16.21089 | 32204 ft | 467 kts | 285° |
| 2026-04-25 23:41 | 51.28665 | -16.30876 | 32200 ft | 467 kts | 285° |
| 2026-04-25 23:41 | 51.30746 | -16.40707 | 32201 ft | 467 kts | 285° |
| 2026-04-25 23:42 | 51.32818 | -16.50538 | 32200 ft | 466 kts | 285° |
| 2026-04-25 23:42 | 51.34881 | -16.60385 | 32197 ft | 466 kts | 285° |
| 2026-04-25 23:43 | 51.36935 | -16.70232 | 32194 ft | 466 kts | 285° |
| 2026-04-25 23:43 | 51.38964 | -16.80007 | 32190 ft | 465 kts | 285° |
| 2026-04-25 23:44 | 51.40994 | -16.89838 | 32191 ft | 465 kts | 285° |
| 2026-04-25 23:44 | 51.43016 | -16.99676 | 32191 ft | 464 kts | 285° |
| 2026-04-25 23:45 | 51.45027 | -17.09510 | 32188 ft | 464 kts | 285° |
| 2026-04-25 23:45 | 51.47027 | -17.19344 | 32189 ft | 463 kts | 285° |
| 2026-04-25 23:46 | 51.49019 | -17.29181 | 32186 ft | 463 kts | 286° |
| 2026-04-25 23:46 | 51.50999 | -17.39011 | 32185 ft | 463 kts | 286° |
| 2026-04-25 23:47 | 51.52971 | -17.48848 | 32185 ft | 462 kts | 286° |
| 2026-04-25 23:47 | 51.54919 | -17.58618 | 32184 ft | 462 kts | 286° |
| 2026-04-25 23:48 | 51.56870 | -17.68450 | 32179 ft | 462 kts | 286° |
| 2026-04-25 23:48 | 51.58811 | -17.78280 | 32179 ft | 461 kts | 286° |
| 2026-04-25 23:49 | 51.60743 | -17.88120 | 32178 ft | 461 kts | 286° |
| 2026-04-25 23:49 | 51.62665 | -17.97956 | 32176 ft | 460 kts | 286° |
| 2026-04-25 23:50 | 51.64578 | -18.07794 | 32173 ft | 460 kts | 286° |
| 2026-04-25 23:50 | 51.66480 | -18.17629 | 32174 ft | 460 kts | 286° |
| 2026-04-25 23:51 | 51.68373 | -18.27464 | 32172 ft | 459 kts | 287° |
| 2026-04-25 23:51 | 51.70255 | -18.37294 | 32170 ft | 459 kts | 287° |
| 2026-04-25 23:52 | 51.72116 | -18.47068 | 32172 ft | 458 kts | 287° |
| 2026-04-25 23:52 | 51.73979 | -18.56904 | 32167 ft | 457 kts | 287° |
| 2026-04-25 23:53 | 51.75829 | -18.66721 | 32170 ft | 457 kts | 287° |
| 2026-04-25 23:53 | 51.77670 | -18.76541 | 32167 ft | 456 kts | 287° |
| 2026-04-25 23:54 | 51.79501 | -18.86356 | 32167 ft | 455 kts | 287° |
| 2026-04-25 23:54 | 51.81306 | -18.96088 | 32165 ft | 455 kts | 286° |
| 2026-04-25 23:55 | 51.83116 | -19.05897 | 32164 ft | 454 kts | 286° |
| 2026-04-25 23:55 | 51.84914 | -19.15690 | 32162 ft | 454 kts | 286° |
| 2026-04-25 23:56 | 51.86399 | -19.23823 | 32163 ft | 453 kts | 286° |
| 2026-04-25 23:56 | 51.88181 | -19.33623 | 32164 ft | 452 kts | 286° |
| 2026-04-25 23:57 | 51.89935 | -19.43326 | 32160 ft | 452 kts | 286° |
| 2026-04-25 23:57 | 51.91694 | -19.53102 | 32159 ft | 451 kts | 286° |
| 2026-04-25 23:58 | 51.93440 | -19.62866 | 32160 ft | 451 kts | 286° |
| 2026-04-25 23:58 | 51.95177 | -19.72625 | 32156 ft | 450 kts | 285° |
| 2026-04-25 23:59 | 51.96895 | -19.82330 | 32158 ft | 449 kts | 285° |
| 2026-04-25 23:59 | 51.98611 | -19.92072 | 32155 ft | 449 kts | 285° |
| 2026-04-26 00:00 | 52.00198 | -20.01853 | 32145 ft | 448 kts | 278° |
| 2026-04-26 00:00 | 52.00690 | -20.11920 | 32149 ft | 447 kts | 273° |
| 2026-04-26 00:01 | 52.00990 | -20.22018 | 32154 ft | 447 kts | 273° |
| 2026-04-26 00:01 | 52.01323 | -20.32026 | 32156 ft | 446 kts | 274° |
| 2026-04-26 00:02 | 52.01698 | -20.42091 | 32150 ft | 446 kts | 274° |
| 2026-04-26 00:02 | 52.02084 | -20.52145 | 32154 ft | 446 kts | 274° |
| 2026-04-26 00:03 | 52.02464 | -20.62197 | 32150 ft | 446 kts | 274° |
| 2026-04-26 00:03 | 52.02834 | -20.72243 | 32151 ft | 445 kts | 274° |
| 2026-04-26 00:04 | 52.03195 | -20.82282 | 32151 ft | 445 kts | 273° |
| 2026-04-26 00:04 | 52.03546 | -20.92309 | 32151 ft | 445 kts | 273° |
| 2026-04-26 00:05 | 52.03886 | -21.02282 | 32150 ft | 444 kts | 273° |
| 2026-04-26 00:05 | 52.04220 | -21.12304 | 32149 ft | 444 kts | 273° |
| 2026-04-26 00:06 | 52.04545 | -21.22325 | 32145 ft | 444 kts | 273° |
| 2026-04-26 00:06 | 52.04861 | -21.32330 | 32148 ft | 443 kts | 273° |
| 2026-04-26 00:07 | 52.05168 | -21.42329 | 32148 ft | 443 kts | 273° |
| 2026-04-26 00:07 | 52.05467 | -21.52319 | 32145 ft | 443 kts | 273° |
| 2026-04-26 00:08 | 52.05755 | -21.62237 | 32144 ft | 442 kts | 272° |
| 2026-04-26 00:08 | 52.06036 | -21.72215 | 32143 ft | 442 kts | 272° |
| 2026-04-26 00:09 | 52.06309 | -21.82210 | 32145 ft | 442 kts | 272° |
| 2026-04-26 00:09 | 52.06574 | -21.92179 | 32147 ft | 441 kts | 272° |
| 2026-04-26 00:10 | 52.06829 | -22.02154 | 32144 ft | 441 kts | 272° |
| 2026-04-26 00:10 | 52.07076 | -22.12105 | 32143 ft | 441 kts | 272° |
| 2026-04-26 00:11 | 52.07313 | -22.21986 | 32138 ft | 440 kts | 272° |
| 2026-04-26 00:11 | 52.07543 | -22.31948 | 32138 ft | 440 kts | 272° |
| 2026-04-26 00:12 | 52.07765 | -22.41878 | 32138 ft | 439 kts | 272° |
| 2026-04-26 00:12 | 52.07977 | -22.51804 | 32138 ft | 439 kts | 272° |
| 2026-04-26 00:13 | 52.08180 | -22.61652 | 32138 ft | 438 kts | 271° |
| 2026-04-26 00:13 | 52.08376 | -22.71557 | 32136 ft | 438 kts | 271° |
| 2026-04-26 00:14 | 52.08563 | -22.81449 | 32135 ft | 438 kts | 271° |
| 2026-04-26 00:14 | 52.08742 | -22.91341 | 32134 ft | 437 kts | 271° |
| 2026-04-26 00:15 | 52.08912 | -23.01232 | 32132 ft | 437 kts | 271° |
| 2026-04-26 00:15 | 52.09075 | -23.11116 | 32132 ft | 437 kts | 271° |
| 2026-04-26 00:16 | 52.09228 | -23.21000 | 32132 ft | 437 kts | 271° |
| 2026-04-26 00:16 | 52.09374 | -23.30882 | 32130 ft | 437 kts | 271° |
| 2026-04-26 00:17 | 52.09511 | -23.40749 | 32132 ft | 436 kts | 271° |
| 2026-04-26 00:17 | 52.09639 | -23.50552 | 32128 ft | 436 kts | 271° |
| 2026-04-26 00:18 | 52.09760 | -23.60420 | 32130 ft | 436 kts | 271° |
| 2026-04-26 00:18 | 52.09872 | -23.70283 | 32131 ft | 436 kts | 270° |
| 2026-04-26 00:19 | 52.09976 | -23.80143 | 32129 ft | 436 kts | 270° |
| 2026-04-26 00:19 | 52.10072 | -23.90004 | 32132 ft | 436 kts | 270° |
| 2026-04-26 00:20 | 52.10160 | -23.99870 | 32132 ft | 436 kts | 270° |
| 2026-04-26 00:20 | 52.10239 | -24.09723 | 32131 ft | 436 kts | 270° |
| 2026-04-26 00:21 | 52.10310 | -24.19521 | 32130 ft | 436 kts | 270° |
| 2026-04-26 00:21 | 52.10373 | -24.29435 | 32125 ft | 436 kts | 270° |
| 2026-04-26 00:22 | 52.10427 | -24.39224 | 32137 ft | 436 kts | 270° |
| 2026-04-26 00:22 | 52.10474 | -24.49073 | 32136 ft | 436 kts | 270° |
| 2026-04-26 00:23 | 52.10512 | -24.58931 | 32127 ft | 436 kts | 270° |
| 2026-04-26 00:23 | 52.10542 | -24.68804 | 32135 ft | 436 kts | 269° |
| 2026-04-26 00:24 | 52.10564 | -24.78672 | 32126 ft | 436 kts | 269° |
| 2026-04-26 00:24 | 52.10578 | -24.88532 | 32126 ft | 436 kts | 269° |
| 2026-04-26 00:25 | 52.10583 | -24.98401 | 32134 ft | 436 kts | 269° |
| 2026-04-26 00:25 | 52.10581 | -25.08204 | 32125 ft | 436 kts | 269° |
| 2026-04-26 00:26 | 52.10570 | -25.18077 | 32135 ft | 436 kts | 269° |
| 2026-04-26 00:26 | 52.10551 | -25.27943 | 32124 ft | 436 kts | 269° |
| 2026-04-26 00:27 | 52.10523 | -25.37809 | 32123 ft | 436 kts | 269° |
| 2026-04-26 00:27 | 52.10488 | -25.47669 | 32122 ft | 436 kts | 269° |
| 2026-04-26 00:28 | 52.10444 | -25.57544 | 32119 ft | 436 kts | 268° |
| 2026-04-26 00:28 | 52.10392 | -25.67408 | 32124 ft | 436 kts | 268° |
| 2026-04-26 00:29 | 52.10331 | -25.77288 | 32122 ft | 436 kts | 268° |
| 2026-04-26 00:29 | 52.10262 | -25.87164 | 32121 ft | 436 kts | 268° |
| 2026-04-26 00:30 | 52.10186 | -25.97036 | 32123 ft | 436 kts | 268° |
| 2026-04-26 00:30 | 52.10101 | -26.06843 | 32118 ft | 436 kts | 268° |
| 2026-04-26 00:31 | 52.10008 | -26.16714 | 32120 ft | 437 kts | 268° |
| 2026-04-26 00:31 | 52.09906 | -26.26587 | 32119 ft | 437 kts | 268° |
| 2026-04-26 00:32 | 52.09796 | -26.36465 | 32110 ft | 437 kts | 268° |
| 2026-04-26 00:32 | 52.09616 | -26.51272 | 32110 ft | 437 kts | 267° |
| 2026-04-26 00:33 | 52.09485 | -26.61148 | 32109 ft | 437 kts | 267° |
| 2026-04-26 00:33 | 52.09347 | -26.71019 | 32115 ft | 437 kts | 267° |
| 2026-04-26 00:34 | 52.09199 | -26.80909 | 32111 ft | 437 kts | 267° |
| 2026-04-26 00:34 | 52.09045 | -26.90737 | 32103 ft | 437 kts | 267° |
| 2026-04-26 00:35 | 52.08881 | -27.00616 | 32103 ft | 437 kts | 266° |
| 2026-04-26 00:35 | 52.08709 | -27.10505 | 32098 ft | 437 kts | 266° |
| 2026-04-26 00:36 | 52.08529 | -27.20380 | 32102 ft | 437 kts | 266° |
| 2026-04-26 00:36 | 52.08340 | -27.30270 | 32106 ft | 437 kts | 266° |
| 2026-04-26 00:37 | 52.08144 | -27.40142 | 32097 ft | 437 kts | 266° |
| 2026-04-26 00:37 | 52.07939 | -27.50028 | 32091 ft | 437 kts | 266° |
| 2026-04-26 00:38 | 52.07726 | -27.59888 | 32093 ft | 437 kts | 266° |
| 2026-04-26 00:38 | 52.07506 | -27.69694 | 32091 ft | 437 kts | 266° |
| 2026-04-26 00:39 | 52.07276 | -27.79567 | 32088 ft | 437 kts | 266° |
| 2026-04-26 00:39 | 52.07078 | -27.87844 | 32085 ft | 437 kts | 265° |
| 2026-04-26 00:40 | 52.06793 | -27.99307 | 32086 ft | 436 kts | 265° |
| 2026-04-26 00:40 | 52.06538 | -28.09174 | 32080 ft | 436 kts | 265° |
| 2026-04-26 00:41 | 52.06276 | -28.19029 | 32080 ft | 436 kts | 265° |
| 2026-04-26 00:41 | 52.06008 | -28.28821 | 32074 ft | 436 kts | 265° |
| 2026-04-26 00:42 | 52.05729 | -28.38678 | 32071 ft | 436 kts | 265° |
| 2026-04-26 00:42 | 52.05443 | -28.48503 | 32070 ft | 435 kts | 265° |
| 2026-04-26 00:43 | 52.05149 | -28.58331 | 32065 ft | 435 kts | 265° |
| 2026-04-26 00:43 | 52.04898 | -28.66484 | 32066 ft | 435 kts | 265° |
| 2026-04-26 00:44 | 52.04589 | -28.76297 | 32058 ft | 435 kts | 265° |
| 2026-04-26 00:44 | 52.04272 | -28.86111 | 32053 ft | 434 kts | 264° |
| 2026-04-26 00:45 | 52.03947 | -28.95915 | 32052 ft | 434 kts | 264° |
| 2026-04-26 00:45 | 52.03615 | -29.05708 | 32046 ft | 434 kts | 264° |
| 2026-04-26 00:46 | 52.03276 | -29.15431 | 32046 ft | 434 kts | 264° |
| 2026-04-26 00:46 | 52.02928 | -29.25220 | 32039 ft | 433 kts | 264° |
| 2026-04-26 00:47 | 52.02571 | -29.34996 | 32036 ft | 433 kts | 264° |
| 2026-04-26 00:47 | 52.02207 | -29.44760 | 32034 ft | 433 kts | 264° |
| 2026-04-26 00:48 | 52.01835 | -29.54526 | 32024 ft | 433 kts | 264° |
| 2026-04-26 00:48 | 52.01455 | -29.64280 | 32024 ft | 433 kts | 264° |
| 2026-04-26 00:49 | 52.01070 | -29.73972 | 32020 ft | 433 kts | 263° |
| 2026-04-26 00:49 | 52.00675 | -29.83719 | 32016 ft | 432 kts | 263° |
| 2026-04-26 00:50 | 52.00274 | -29.93454 | 32012 ft | 432 kts | 263° |
| 2026-04-26 00:50 | 51.99849 | -30.03189 | 32007 ft | 432 kts | 262° |
| 2026-04-26 00:51 | 51.99304 | -30.12879 | 32002 ft | 431 kts | 262° |
| 2026-04-26 00:51 | 51.98724 | -30.22562 | 31996 ft | 431 kts | 262° |
| 2026-04-26 00:52 | 51.98147 | -30.32236 | 31995 ft | 431 kts | 262° |
| 2026-04-26 00:52 | 51.97572 | -30.41906 | 31986 ft | 430 kts | 262° |
| 2026-04-26 00:53 | 51.96996 | -30.51513 | 31981 ft | 430 kts | 261° |
| 2026-04-26 00:53 | 51.96410 | -30.61166 | 31977 ft | 430 kts | 261° |
| 2026-04-26 00:54 | 51.95816 | -30.70819 | 31971 ft | 430 kts | 261° |
| 2026-04-26 00:54 | 51.95215 | -30.80452 | 31965 ft | 430 kts | 261° |
| 2026-04-26 00:55 | 51.94606 | -30.90093 | 31964 ft | 430 kts | 261° |
| 2026-04-26 00:55 | 51.93989 | -30.99718 | 31957 ft | 430 kts | 261° |
| 2026-04-26 00:56 | 51.93368 | -31.09289 | 31953 ft | 430 kts | 261° |
| 2026-04-26 00:56 | 51.92731 | -31.18974 | 31950 ft | 430 kts | 260° |
| 2026-04-26 00:57 | 51.92094 | -31.28541 | 31943 ft | 430 kts | 260° |
| 2026-04-26 00:57 | 51.91445 | -31.38167 | 31935 ft | 430 kts | 260° |
| 2026-04-26 00:58 | 51.90788 | -31.47795 | 31934 ft | 430 kts | 260° |
| 2026-04-26 00:58 | 51.90124 | -31.57411 | 31929 ft | 430 kts | 259° |
| 2026-04-26 00:59 | 51.89453 | -31.67018 | 31918 ft | 429 kts | 259° |
| 2026-04-26 00:59 | 51.88773 | -31.76631 | 31915 ft | 429 kts | 259° |
| 2026-04-26 01:00 | 51.88086 | -31.86224 | 31912 ft | 429 kts | 259° |
| 2026-04-26 01:00 | 51.87396 | -31.95752 | 31903 ft | 429 kts | 259° |
| 2026-04-26 01:01 | 51.86694 | -32.05333 | 31899 ft | 428 kts | 259° |
| 2026-04-26 01:01 | 51.85985 | -32.14902 | 31902 ft | 428 kts | 258° |
| 2026-04-26 01:02 | 51.85269 | -32.24470 | 31889 ft | 428 kts | 258° |
| 2026-04-26 01:02 | 51.84544 | -32.34029 | 31885 ft | 428 kts | 258° |
| 2026-04-26 01:03 | 51.83811 | -32.43600 | 31876 ft | 428 kts | 258° |
| 2026-04-26 01:03 | 51.83071 | -32.53166 | 31868 ft | 428 kts | 258° |
| 2026-04-26 01:04 | 51.82328 | -32.62657 | 31860 ft | 428 kts | 258° |
| 2026-04-26 01:04 | 51.81572 | -32.72218 | 31851 ft | 428 kts | 258° |
| 2026-04-26 01:05 | 51.80810 | -32.81759 | 31848 ft | 428 kts | 257° |
| 2026-04-26 01:05 | 51.80038 | -32.91306 | 31839 ft | 428 kts | 257° |
| 2026-04-26 01:06 | 51.79261 | -33.00837 | 31834 ft | 428 kts | 257° |
| 2026-04-26 01:06 | 51.78475 | -33.10369 | 31831 ft | 428 kts | 257° |
| 2026-04-26 01:07 | 51.77682 | -33.19891 | 31827 ft | 428 kts | 257° |
| 2026-04-26 01:07 | 51.76882 | -33.29406 | 31819 ft | 428 kts | 257° |
| 2026-04-26 01:08 | 51.76074 | -33.38913 | 31812 ft | 428 kts | 257° |
| 2026-04-26 01:08 | 51.75262 | -33.48381 | 31807 ft | 428 kts | 256° |
| 2026-04-26 01:09 | 51.74437 | -33.57899 | 31804 ft | 428 kts | 256° |
| 2026-04-26 01:09 | 51.73604 | -33.67428 | 31792 ft | 428 kts | 256° |
| 2026-04-26 01:10 | 51.72768 | -33.76888 | 31791 ft | 429 kts | 256° |
| 2026-04-26 01:10 | 51.71920 | -33.86406 | 31783 ft | 429 kts | 256° |
| 2026-04-26 01:11 | 51.71062 | -33.95937 | 31773 ft | 429 kts | 256° |
| 2026-04-26 01:11 | 51.70195 | -34.05490 | 31764 ft | 430 kts | 256° |
| 2026-04-26 01:12 | 51.69321 | -34.15028 | 31754 ft | 430 kts | 256° |
| 2026-04-26 01:12 | 51.68444 | -34.24500 | 31753 ft | 430 kts | 256° |
| 2026-04-26 01:13 | 51.67555 | -34.34025 | 31747 ft | 430 kts | 255° |
| 2026-04-26 01:13 | 51.66657 | -34.43564 | 31737 ft | 430 kts | 255° |
| 2026-04-26 01:14 | 51.65751 | -34.53094 | 31733 ft | 430 kts | 255° |
| 2026-04-26 01:14 | 51.64838 | -34.62615 | 31726 ft | 430 kts | 255° |
| 2026-04-26 01:15 | 51.63918 | -34.72129 | 31722 ft | 430 kts | 255° |
| 2026-04-26 01:15 | 51.62996 | -34.81577 | 31715 ft | 430 kts | 255° |
| 2026-04-26 01:16 | 51.62060 | -34.91082 | 31708 ft | 430 kts | 255° |
| 2026-04-26 01:16 | 51.61117 | -35.00584 | 31697 ft | 430 kts | 254° |
| 2026-04-26 01:17 | 51.60166 | -35.10079 | 31694 ft | 430 kts | 254° |
| 2026-04-26 01:17 | 51.59206 | -35.19588 | 31694 ft | 430 kts | 254° |
| 2026-04-26 01:18 | 51.58238 | -35.29086 | 31685 ft | 430 kts | 253° |
| 2026-04-26 01:18 | 51.57263 | -35.38580 | 31677 ft | 431 kts | 253° |
| 2026-04-26 01:19 | 51.56280 | -35.48081 | 31669 ft | 431 kts | 253° |
| 2026-04-26 01:19 | 51.55287 | -35.57592 | 31661 ft | 431 kts | 253° |
| 2026-04-26 01:20 | 51.54293 | -35.67034 | 31656 ft | 431 kts | 253° |
| 2026-04-26 01:20 | 51.53285 | -35.76538 | 31651 ft | 432 kts | 253° |
| 2026-04-26 01:21 | 51.52268 | -35.86049 | 31643 ft | 432 kts | 252° |
| 2026-04-26 01:21 | 51.51244 | -35.95553 | 31637 ft | 432 kts | 252° |
| 2026-04-26 01:22 | 51.50210 | -36.05063 | 31634 ft | 432 kts | 252° |
| 2026-04-26 01:22 | 51.49169 | -36.14575 | 31622 ft | 432 kts | 252° |
| 2026-04-26 01:23 | 51.48119 | -36.24088 | 31618 ft | 433 kts | 252° |
| 2026-04-26 01:23 | 51.47061 | -36.33597 | 31616 ft | 433 kts | 252° |
| 2026-04-26 01:24 | 51.46002 | -36.43041 | 31611 ft | 433 kts | 252° |
| 2026-04-26 01:24 | 51.44928 | -36.52551 | 31607 ft | 433 kts | 251° |
| 2026-04-26 01:25 | 51.43846 | -36.62060 | 31603 ft | 434 kts | 251° |
| 2026-04-26 01:25 | 51.42757 | -36.71559 | 31597 ft | 434 kts | 251° |
| 2026-04-26 01:26 | 51.41658 | -36.81069 | 31594 ft | 434 kts | 251° |
| 2026-04-26 01:26 | 51.40553 | -36.90565 | 31589 ft | 434 kts | 251° |
| 2026-04-26 01:27 | 51.39437 | -37.00081 | 31580 ft | 434 kts | 251° |
| 2026-04-26 01:27 | 51.38315 | -37.09575 | 31577 ft | 434 kts | 250° |
| 2026-04-26 01:28 | 51.37184 | -37.19078 | 31569 ft | 434 kts | 250° |
| 2026-04-26 01:28 | 51.36052 | -37.28522 | 31567 ft | 435 kts | 250° |
| 2026-04-26 01:29 | 51.34905 | -37.38025 | 31561 ft | 435 kts | 250° |
| 2026-04-26 01:29 | 51.33748 | -37.47539 | 31556 ft | 435 kts | 250° |
| 2026-04-26 01:30 | 51.32583 | -37.57050 | 31550 ft | 436 kts | 250° |
| 2026-04-26 01:30 | 51.31409 | -37.66566 | 31545 ft | 436 kts | 250° |
| 2026-04-26 01:31 | 51.30427 | -37.74477 | 31544 ft | 437 kts | 250° |
| 2026-04-26 01:31 | 51.29043 | -37.85549 | 31539 ft | 437 kts | 250° |
| 2026-04-26 01:32 | 51.28038 | -37.93533 | 31538 ft | 437 kts | 249° |
| 2026-04-26 01:32 | 51.26839 | -38.02994 | 31538 ft | 438 kts | 249° |
| 2026-04-26 01:33 | 51.25623 | -38.12528 | 31531 ft | 438 kts | 249° |
| 2026-04-26 01:33 | 51.24397 | -38.22074 | 31527 ft | 439 kts | 249° |
| 2026-04-26 01:34 | 51.23164 | -38.31607 | 31519 ft | 439 kts | 249° |
| 2026-04-26 01:34 | 51.21920 | -38.41154 | 31520 ft | 440 kts | 249° |
| 2026-04-26 01:35 | 51.20667 | -38.50716 | 31517 ft | 440 kts | 249° |
| 2026-04-26 01:35 | 51.19404 | -38.60287 | 31508 ft | 441 kts | 249° |
| 2026-04-26 01:36 | 51.18133 | -38.69848 | 31512 ft | 442 kts | 249° |
| 2026-04-26 01:37 | 51.16206 | -38.84227 | 31515 ft | 443 kts | 249° |
| 2026-04-26 01:37 | 51.14908 | -38.93839 | 31512 ft | 444 kts | 249° |
| 2026-04-26 01:38 | 51.13608 | -39.03394 | 31514 ft | 445 kts | 249° |
| 2026-04-26 01:38 | 51.12289 | -39.13033 | 31514 ft | 446 kts | 249° |
| 2026-04-26 01:39 | 51.10958 | -39.22691 | 31518 ft | 447 kts | 249° |
| 2026-04-26 01:39 | 51.09616 | -39.32367 | 31513 ft | 448 kts | 249° |
| 2026-04-26 01:40 | 51.08265 | -39.42051 | 31512 ft | 449 kts | 249° |
| 2026-04-26 01:40 | 51.06900 | -39.51766 | 31511 ft | 450 kts | 249° |
| 2026-04-26 01:41 | 51.05526 | -39.61485 | 31510 ft | 451 kts | 249° |
| 2026-04-26 01:41 | 51.04141 | -39.71221 | 31511 ft | 452 kts | 249° |
| 2026-04-26 01:42 | 51.02752 | -39.80923 | 31510 ft | 453 kts | 249° |
| 2026-04-26 01:42 | 51.01348 | -39.90680 | 31505 ft | 454 kts | 249° |
| 2026-04-26 01:43 | 50.99929 | -40.00471 | 31510 ft | 455 kts | 249° |
| 2026-04-26 01:43 | 50.98467 | -40.10238 | 31505 ft | 455 kts | 249° |
| 2026-04-26 01:44 | 50.96975 | -40.20012 | 31508 ft | 456 kts | 249° |
| 2026-04-26 01:44 | 50.95474 | -40.29813 | 31507 ft | 457 kts | 249° |
| 2026-04-26 01:45 | 50.93975 | -40.39577 | 31504 ft | 458 kts | 249° |
| 2026-04-26 01:45 | 50.92458 | -40.49414 | 31506 ft | 459 kts | 249° |
| 2026-04-26 01:46 | 50.90932 | -40.59251 | 31504 ft | 460 kts | 249° |
| 2026-04-26 01:46 | 50.89392 | -40.69114 | 31506 ft | 461 kts | 249° |
| 2026-04-26 01:47 | 50.87842 | -40.78983 | 31502 ft | 462 kts | 249° |
| 2026-04-26 01:47 | 50.86283 | -40.88854 | 31508 ft | 462 kts | 249° |
| 2026-04-26 01:48 | 50.84711 | -40.98740 | 31509 ft | 463 kts | 249° |
| 2026-04-26 01:48 | 50.83141 | -41.08557 | 31506 ft | 464 kts | 249° |
| 2026-04-26 01:49 | 50.81550 | -41.18445 | 31506 ft | 464 kts | 249° |
| 2026-04-26 01:49 | 50.79950 | -41.28336 | 31505 ft | 465 kts | 249° |
| 2026-04-26 01:50 | 50.78337 | -41.38241 | 31503 ft | 466 kts | 249° |
| 2026-04-26 01:50 | 50.76714 | -41.48152 | 31502 ft | 466 kts | 248° |
| 2026-04-26 01:51 | 50.75078 | -41.58087 | 31504 ft | 467 kts | 249° |
| 2026-04-26 01:51 | 50.73432 | -41.68023 | 31505 ft | 468 kts | 249° |
| 2026-04-26 01:52 | 50.71784 | -41.77910 | 31504 ft | 469 kts | 249° |
| 2026-04-26 01:52 | 50.70106 | -41.87923 | 31512 ft | 470 kts | 248° |
| 2026-04-26 01:53 | 50.68436 | -41.97830 | 31511 ft | 470 kts | 249° |
| 2026-04-26 01:53 | 50.66745 | -42.07800 | 31508 ft | 471 kts | 249° |
| 2026-04-26 01:54 | 50.65042 | -42.17787 | 31507 ft | 472 kts | 249° |
| 2026-04-26 01:54 | 50.63330 | -42.27772 | 31506 ft | 472 kts | 249° |
| 2026-04-26 01:55 | 50.61604 | -42.37780 | 31507 ft | 473 kts | 249° |
| 2026-04-26 01:55 | 50.59870 | -42.47772 | 31506 ft | 473 kts | 249° |
| 2026-04-26 01:56 | 50.58127 | -42.57764 | 31504 ft | 474 kts | 249° |
| 2026-04-26 01:56 | 50.56373 | -42.67761 | 31505 ft | 474 kts | 249° |
| 2026-04-26 01:57 | 50.54610 | -42.77757 | 31501 ft | 474 kts | 249° |
| 2026-04-26 01:57 | 50.52849 | -42.87679 | 31499 ft | 475 kts | 249° |
| 2026-04-26 01:58 | 50.51064 | -42.97687 | 31498 ft | 475 kts | 249° |
| 2026-04-26 01:58 | 50.49271 | -43.07680 | 31494 ft | 475 kts | 249° |
| 2026-04-26 01:59 | 50.47471 | -43.17661 | 31491 ft | 475 kts | 249° |
| 2026-04-26 01:59 | 50.45655 | -43.27672 | 31492 ft | 476 kts | 249° |
| 2026-04-26 02:00 | 50.43834 | -43.37659 | 31490 ft | 476 kts | 249° |
| 2026-04-26 02:00 | 50.42015 | -43.47576 | 31484 ft | 476 kts | 249° |
| 2026-04-26 02:01 | 50.40172 | -43.57571 | 31483 ft | 477 kts | 249° |
| 2026-04-26 02:01 | 50.38323 | -43.67549 | 31496 ft | 477 kts | 249° |
| 2026-04-26 02:02 | 50.36462 | -43.77536 | 31483 ft | 477 kts | 249° |
| 2026-04-26 02:02 | 50.34591 | -43.87518 | 31480 ft | 478 kts | 249° |
| 2026-04-26 02:03 | 50.32711 | -43.97501 | 31476 ft | 478 kts | 249° |
| 2026-04-26 02:03 | 50.30821 | -44.07478 | 31470 ft | 478 kts | 249° |
| 2026-04-26 02:04 | 50.28934 | -44.17389 | 31468 ft | 479 kts | 249° |
| 2026-04-26 02:04 | 50.27025 | -44.27364 | 31468 ft | 479 kts | 249° |
| 2026-04-26 02:05 | 50.25106 | -44.37340 | 31464 ft | 479 kts | 249° |
| 2026-04-26 02:05 | 50.23179 | -44.47305 | 31460 ft | 480 kts | 249° |
| 2026-04-26 02:06 | 50.21239 | -44.57281 | 31455 ft | 480 kts | 249° |
| 2026-04-26 02:06 | 50.19289 | -44.67259 | 31458 ft | 481 kts | 249° |
| 2026-04-26 02:07 | 50.17326 | -44.77250 | 31453 ft | 481 kts | 250° |
| 2026-04-26 02:07 | 50.15354 | -44.87234 | 31450 ft | 481 kts | 250° |
| 2026-04-26 02:08 | 50.13375 | -44.97205 | 31447 ft | 482 kts | 250° |
| 2026-04-26 02:08 | 50.11385 | -45.07182 | 31444 ft | 482 kts | 250° |
| 2026-04-26 02:09 | 50.09399 | -45.17085 | 31438 ft | 482 kts | 250° |
| 2026-04-26 02:09 | 50.07386 | -45.27073 | 31439 ft | 483 kts | 250° |
| 2026-04-26 02:10 | 50.05364 | -45.37050 | 31437 ft | 483 kts | 250° |
| 2026-04-26 02:10 | 50.03334 | -45.47021 | 31427 ft | 484 kts | 250° |
| 2026-04-26 02:11 | 50.01292 | -45.57002 | 31427 ft | 484 kts | 250° |
| 2026-04-26 02:11 | 49.99239 | -45.66981 | 31420 ft | 484 kts | 250° |
| 2026-04-26 02:12 | 49.97190 | -45.76896 | 31421 ft | 485 kts | 250° |
| 2026-04-26 02:12 | 49.95118 | -45.86872 | 31420 ft | 485 kts | 250° |
| 2026-04-26 02:13 | 49.93036 | -45.96845 | 31415 ft | 486 kts | 249° |
| 2026-04-26 02:13 | 49.90940 | -46.06831 | 31412 ft | 486 kts | 249° |
| 2026-04-26 02:14 | 49.88836 | -46.16813 | 31409 ft | 487 kts | 250° |
| 2026-04-26 02:14 | 49.86731 | -46.26742 | 31404 ft | 487 kts | 250° |
| 2026-04-26 02:15 | 49.84599 | -46.36747 | 31399 ft | 488 kts | 250° |
| 2026-04-26 02:15 | 49.82473 | -46.46689 | 31398 ft | 488 kts | 250° |
| 2026-04-26 02:16 | 49.80324 | -46.56679 | 31392 ft | 489 kts | 249° |
| 2026-04-26 02:16 | 49.78170 | -46.66670 | 31393 ft | 489 kts | 249° |
| 2026-04-26 02:17 | 49.76000 | -46.76661 | 31389 ft | 490 kts | 249° |
| 2026-04-26 02:17 | 49.74188 | -46.84964 | 31383 ft | 491 kts | 250° |
| 2026-04-26 02:18 | 49.71997 | -46.94961 | 31378 ft | 490 kts | 250° |
| 2026-04-26 02:18 | 49.69799 | -47.04941 | 31376 ft | 491 kts | 250° |
| 2026-04-26 02:19 | 49.67598 | -47.14893 | 31371 ft | 489 kts | 250° |
| 2026-04-26 02:19 | 49.65393 | -47.24818 | 31370 ft | 488 kts | 250° |
| 2026-04-26 02:20 | 49.63179 | -47.34728 | 31370 ft | 489 kts | 250° |
| 2026-04-26 02:20 | 49.60949 | -47.44661 | 31366 ft | 489 kts | 250° |
| 2026-04-26 02:21 | 49.58733 | -47.54496 | 31364 ft | 490 kts | 250° |
| 2026-04-26 02:21 | 49.56486 | -47.64420 | 31362 ft | 490 kts | 250° |
| 2026-04-26 02:22 | 49.54230 | -47.74331 | 31358 ft | 491 kts | 250° |
| 2026-04-26 02:22 | 49.51965 | -47.84241 | 31359 ft | 490 kts | 250° |
| 2026-04-26 02:23 | 49.49690 | -47.94146 | 31349 ft | 491 kts | 250° |
| 2026-04-26 02:23 | 49.47419 | -48.03986 | 31350 ft | 491 kts | 250° |
| 2026-04-26 02:24 | 49.45125 | -48.13886 | 31349 ft | 492 kts | 250° |
| 2026-04-26 02:24 | 49.42820 | -48.23783 | 31345 ft | 492 kts | 250° |
| 2026-04-26 02:25 | 49.40507 | -48.33668 | 31343 ft | 491 kts | 250° |
| 2026-04-26 02:25 | 49.38188 | -48.43536 | 31342 ft | 492 kts | 250° |
| 2026-04-26 02:26 | 49.35857 | -48.53394 | 31338 ft | 491 kts | 250° |
| 2026-04-26 02:26 | 49.33520 | -48.63241 | 31341 ft | 492 kts | 250° |
| 2026-04-26 02:27 | 49.31172 | -48.73095 | 31339 ft | 492 kts | 251° |
| 2026-04-26 02:27 | 49.28815 | -48.82945 | 31337 ft | 493 kts | 251° |
| 2026-04-26 02:28 | 49.26444 | -48.92810 | 31340 ft | 493 kts | 251° |
| 2026-04-26 02:28 | 49.24065 | -49.02663 | 31341 ft | 494 kts | 250° |
| 2026-04-26 02:29 | 49.21688 | -49.12464 | 31336 ft | 495 kts | 251° |
| 2026-04-26 02:29 | 49.19286 | -49.22323 | 31338 ft | 495 kts | 251° |
| 2026-04-26 02:30 | 49.16876 | -49.32173 | 31339 ft | 495 kts | 251° |
| 2026-04-26 02:30 | 49.13626 | -49.41383 | 31346 ft | 498 kts | 226° |
| 2026-04-26 02:30 | 49.01008 | -49.57113 | 31342 ft | 32000 kts | 218° |
| 2026-04-26 02:31 | 48.41226 | -50.29370 | 31343 ft | 500 kts | 218° |
| 2026-04-26 02:31 | 48.38372 | -50.32446 | 30705 ft | 506 kts | 216° |
| 2026-04-26 02:31 | 48.35494 | -50.35429 | 30122 ft | 499 kts | 216° |
| 2026-04-26 02:31 | 48.32634 | -50.38339 | 29538 ft | 494 kts | 216° |
| 2026-04-26 02:32 | 48.29794 | -50.41199 | 28855 ft | 489 kts | 216° |
| 2026-04-26 02:32 | 48.27009 | -50.43983 | 28166 ft | 484 kts | 216° |
| 2026-04-26 02:32 | 48.24214 | -50.46765 | 27484 ft | 481 kts | 215° |
| 2026-04-26 02:32 | 48.21399 | -50.49563 | 26840 ft | 493 kts | 215° |
| 2026-04-26 02:33 | 48.18527 | -50.52416 | 26190 ft | 497 kts | 215° |
| 2026-04-26 02:33 | 48.15646 | -50.55277 | 25549 ft | 493 kts | 215° |
| 2026-04-26 02:33 | 48.12804 | -50.58092 | 24917 ft | 487 kts | 215° |
| 2026-04-26 02:33 | 48.09989 | -50.60871 | 24304 ft | 482 kts | 215° |
| 2026-04-26 02:34 | 48.07202 | -50.63616 | 23707 ft | 477 kts | 215° |
| 2026-04-26 02:34 | 48.04440 | -50.66327 | 23121 ft | 473 kts | 215° |
| 2026-04-26 02:34 | 48.01695 | -50.69013 | 22452 ft | 470 kts | 215° |
| 2026-04-26 02:34 | 47.98937 | -50.71707 | 21757 ft | 479 kts | 215° |
| 2026-04-26 02:35 | 47.96131 | -50.74444 | 21082 ft | 482 kts | 215° |
| 2026-04-26 02:35 | 47.93321 | -50.77177 | 20411 ft | 479 kts | 215° |
| 2026-04-26 02:35 | 47.90546 | -50.79867 | 19750 ft | 474 kts | 215° |
| 2026-04-26 02:35 | 47.87791 | -50.82528 | 19107 ft | 469 kts | 215° |
| 2026-04-26 02:36 | 47.85065 | -50.85155 | 18481 ft | 465 kts | 215° |
| 2026-04-26 02:36 | 47.82360 | -50.87755 | 17870 ft | 461 kts | 215° |
| 2026-04-26 02:36 | 47.79682 | -50.90325 | 17210 ft | 457 kts | 215° |
| 2026-04-26 02:36 | 47.77016 | -50.92878 | 16518 ft | 454 kts | 215° |
| 2026-04-26 02:37 | 47.74572 | -50.95759 | 15810 ft | 445 kts | 232° |
| 2026-04-26 02:37 | 47.72977 | -50.99571 | 15162 ft | 428 kts | 254° |
| 2026-04-26 02:37 | 47.72445 | -51.03778 | 14530 ft | 410 kts | 276° |
| 2026-04-26 02:37 | 47.73022 | -51.07776 | 14194 ft | 379 kts | 298° |
| 2026-04-26 02:38 | 47.74008 | -51.11100 | 14441 ft | 334 kts | 298° |
| 2026-04-26 02:38 | 47.74843 | -51.14110 | 14469 ft | 301 kts | 297° |
| 2026-04-26 02:38 | 47.75623 | -51.16997 | 13900 ft | 291 kts | 297° |
| 2026-04-26 02:38 | 47.76348 | -51.19717 | 13411 ft | 283 kts | 297° |
| 2026-04-26 02:39 | 47.76805 | -51.22606 | 12873 ft | 287 kts | 281° |
| 2026-04-26 02:39 | 47.76830 | -51.25485 | 12363 ft | 291 kts | 275° |
| 2026-04-26 02:39 | 47.76752 | -51.28558 | 11969 ft | 290 kts | 274° |
| 2026-04-26 02:39 | 47.76659 | -51.31560 | 11656 ft | 292 kts | 274° |
| 2026-04-26 02:40 | 47.76563 | -51.34589 | 11339 ft | 293 kts | 273° |
| 2026-04-26 02:40 | 47.76466 | -51.37604 | 11026 ft | 291 kts | 273° |
| 2026-04-26 02:40 | 47.76322 | -51.40601 | 10714 ft | 292 kts | 268° |
| 2026-04-26 02:40 | 47.75998 | -51.43579 | 10417 ft | 292 kts | 265° |
| 2026-04-26 02:41 | 47.75624 | -51.46524 | 10148 ft | 290 kts | 265° |
| 2026-04-26 02:41 | 47.75251 | -51.49457 | 9862 ft | 287 kts | 265° |
| 2026-04-26 02:41 | 47.74892 | -51.52365 | 9561 ft | 286 kts | 265° |
| 2026-04-26 02:41 | 47.74543 | -51.55273 | 9256 ft | 285 kts | 266° |
| 2026-04-26 02:42 | 47.74203 | -51.58169 | 8928 ft | 285 kts | 266° |
| 2026-04-26 02:42 | 47.73868 | -51.61070 | 8598 ft | 284 kts | 266° |
| 2026-04-26 02:42 | 47.73537 | -51.63964 | 8278 ft | 283 kts | 266° |
| 2026-04-26 02:42 | 47.73210 | -51.66832 | 8019 ft | 280 kts | 266° |
| 2026-04-26 02:43 | 47.72567 | -51.72486 | 7583 ft | 267 kts | 266° |
| 2026-04-26 02:43 | 47.72266 | -51.75093 | 7372 ft | 246 kts | 267° |
| 2026-04-26 02:43 | 47.71990 | -51.77484 | 7168 ft | 230 kts | 267° |
| 2026-04-26 02:44 | 47.71727 | -51.79803 | 6983 ft | 226 kts | 268° |
| 2026-04-26 02:44 | 47.71469 | -51.82098 | 6836 ft | 226 kts | 268° |
| 2026-04-26 02:44 | 47.71210 | -51.84411 | 6656 ft | 226 kts | 268° |
| 2026-04-26 02:44 | 47.70951 | -51.86711 | 6480 ft | 226 kts | 268° |
| 2026-04-26 02:45 | 47.70691 | -51.89002 | 6307 ft | 225 kts | 268° |
| 2026-04-26 02:45 | 47.70431 | -51.91288 | 6128 ft | 224 kts | 268° |
| 2026-04-26 02:45 | 47.70172 | -51.93558 | 5954 ft | 223 kts | 268° |
| 2026-04-26 02:45 | 47.69913 | -51.95825 | 5776 ft | 222 kts | 267° |
| 2026-04-26 02:46 | 47.69654 | -51.98088 | 5589 ft | 222 kts | 267° |
| 2026-04-26 02:46 | 47.69394 | -52.00349 | 5402 ft | 222 kts | 267° |
| 2026-04-26 02:46 | 47.69135 | -52.02603 | 5219 ft | 221 kts | 267° |
| 2026-04-26 02:46 | 47.68875 | -52.04852 | 5034 ft | 220 kts | 267° |
| 2026-04-26 02:47 | 47.68617 | -52.07087 | 4850 ft | 219 kts | 267° |
| 2026-04-26 02:47 | 47.68359 | -52.09310 | 4664 ft | 219 kts | 267° |
| 2026-04-26 02:47 | 47.68105 | -52.11505 | 4494 ft | 218 kts | 267° |
| 2026-04-26 02:47 | 47.67848 | -52.13703 | 4293 ft | 212 kts | 267° |
| 2026-04-26 02:48 | 47.67600 | -52.15810 | 4097 ft | 203 kts | 267° |
| 2026-04-26 02:48 | 47.67362 | -52.17845 | 3895 ft | 199 kts | 267° |
| 2026-04-26 02:48 | 47.67126 | -52.19872 | 3717 ft | 200 kts | 267° |
| 2026-04-26 02:48 | 47.66890 | -52.21905 | 3534 ft | 200 kts | 267° |
| 2026-04-26 02:49 | 47.66653 | -52.23936 | 3355 ft | 200 kts | 267° |
| 2026-04-26 02:49 | 47.66416 | -52.25961 | 3172 ft | 199 kts | 267° |
| 2026-04-26 02:49 | 47.66180 | -52.27969 | 3044 ft | 197 kts | 267° |
| 2026-04-26 02:49 | 47.65944 | -52.29983 | 3004 ft | 198 kts | 267° |
| 2026-04-26 02:50 | 47.65708 | -52.31981 | 2997 ft | 197 kts | 267° |
| 2026-04-26 02:50 | 47.65472 | -52.33982 | 3000 ft | 197 kts | 267° |
| 2026-04-26 02:50 | 47.65236 | -52.35991 | 3006 ft | 198 kts | 267° |
| 2026-04-26 02:50 | 47.64998 | -52.38003 | 2999 ft | 198 kts | 268° |
| 2026-04-26 02:51 | 47.64763 | -52.39990 | 2998 ft | 198 kts | 268° |
| 2026-04-26 02:51 | 47.64524 | -52.41998 | 2998 ft | 198 kts | 267° |
| 2026-04-26 02:51 | 47.64285 | -52.44001 | 3007 ft | 197 kts | 268° |
| 2026-04-26 02:51 | 47.64031 | -52.46006 | 3003 ft | 198 kts | 266° |
| 2026-04-26 02:52 | 47.63792 | -52.48015 | 3002 ft | 197 kts | 270° |
| 2026-04-26 02:52 | 47.63649 | -52.50023 | 2998 ft | 195 kts | 273° |
| 2026-04-26 02:52 | 47.63546 | -52.52028 | 2992 ft | 192 kts | 274° |
| 2026-04-26 02:52 | 47.63456 | -52.53917 | 3023 ft | 173 kts | 275° |
| 2026-04-26 02:53 | 47.63387 | -52.55679 | 2936 ft | 170 kts | 275° |
| 2026-04-26 02:53 | 47.63309 | -52.57477 | 2727 ft | 178 kts | 274° |
| 2026-04-26 02:53 | 47.63220 | -52.59291 | 2473 ft | 172 kts | 274° |
| 2026-04-26 02:53 | 47.63134 | -52.60966 | 2233 ft | 155 kts | 276° |
| 2026-04-26 02:54 | 47.63060 | -52.62548 | 2037 ft | 152 kts | 277° |
| 2026-04-26 02:54 | 47.62985 | -52.64101 | 1829 ft | 150 kts | 276° |
| 2026-04-26 02:54 | 47.62911 | -52.65626 | 1606 ft | 144 kts | 276° |
| 2026-04-26 02:54 | 47.62841 | -52.67108 | 1382 ft | 146 kts | 276° |
| 2026-04-26 02:55 | 47.62768 | -52.68645 | 1191 ft | 150 kts | 274° |
| 2026-04-26 02:55 | 47.62696 | -52.70130 | 983 ft | 149 kts | 273° |
| 2026-04-26 02:55 | 47.62624 | -52.71644 | 756 ft | 150 kts | 273° |
| 2026-04-26 02:55 | 47.62555 | -52.73213 | 556 ft | 153 kts | 276° |
| 2026-04-26 02:56 | 47.62490 | -52.74641 | 453 ft | 116 kts | 264° |
| 2026-04-26 02:56 | 47.62443 | -52.75550 | 453 ft | 62 kts | 265° |
| 2026-04-26 02:56 | 47.62369 | -52.75859 | 457 ft | 10 kts | 187° |
| 2026-04-26 02:56 | 47.62328 | -52.75848 | 456 ft | 3 kts | 152° |
| 2026-04-26 02:57 | 47.62162 | -52.75490 | 454 ft | 85 kts | 116° |
| 2026-04-26 02:57 | 47.61853 | -52.74705 | 450 ft | 48 kts | 125° |
| 2026-04-26 02:57 | 47.61783 | -52.74574 | 449 ft | 0 kts | 139° |